sensor_id;sensor_type;location;lat;lon;timestamp;temperature;humidity
7516;DHT22;3799;47.184;8.538;2024-01-16T00:01:01;1.30;99.90
7516;DHT22;3799;47.184;8.538;2024-01-16T00:03:28;1.40;99.90
7516;DHT22;3799;47.184;8.538;2024-01-16T00:05:56;1.10;99.90
7516;DHT22;3799;47.184;8.538;2024-01-16T00:08:23;1.40;99.90
7516;DHT22;3799;47.184;8.538;2024-01-16T00:10:51;1.20;99.90
7516;DHT22;3799;47.184;8.538;2024-01-16T00:13:18;1.20;99.90
7516;DHT22;3799;47.184;8.538;2024-01-16T00:15:45;1.20;99.90
7516;DHT22;3799;47.184;8.538;2024-01-16T00:18:12;1.00;99.90
7516;DHT22;3799;47.184;8.538;2024-01-16T00:20:40;1.10;99.90
7516;DHT22;3799;47.184;8.538;2024-01-16T00:23:07;1.40;99.90
7516;DHT22;3799;47.184;8.538;2024-01-16T00:25:34;1.20;99.90
7516;DHT22;3799;47.184;8.538;2024-01-16T00:28:02;1.00;99.90
7516;DHT22;3799;47.184;8.538;2024-01-16T00:30:29;0.90;99.90
7516;DHT22;3799;47.184;8.538;2024-01-16T00:32:57;1.00;99.90
7516;DHT22;3799;47.184;8.538;2024-01-16T00:35:24;1.30;99.90
7516;DHT22;3799;47.184;8.538;2024-01-16T00:37:52;1.10;99.90
7516;DHT22;3799;47.184;8.538;2024-01-16T00:40:19;1.10;99.90
7516;DHT22;3799;47.184;8.538;2024-01-16T00:42:46;1.00;99.90
7516;DHT22;3799;47.184;8.538;2024-01-16T00:45:13;1.00;99.90
7516;DHT22;3799;47.184;8.538;2024-01-16T00:47:40;0.90;99.90
7516;DHT22;3799;47.184;8.538;2024-01-16T00:50:08;1.00;99.90
7516;DHT22;3799;47.184;8.538;2024-01-16T00:52:36;1.10;99.90
7516;DHT22;3799;47.184;8.538;2024-01-16T00:55:04;1.30;99.90
7516;DHT22;3799;47.184;8.538;2024-01-16T00:57:31;1.20;99.90
7516;DHT22;3799;47.184;8.538;2024-01-16T00:59:59;1.00;99.90
7516;DHT22;3799;47.184;8.538;2024-01-16T01:02:26;1.20;99.90
7516;DHT22;3799;47.184;8.538;2024-01-16T01:04:53;1.20;99.90
7516;DHT22;3799;47.184;8.538;2024-01-16T01:07:21;1.00;99.90
7516;DHT22;3799;47.184;8.538;2024-01-16T01:09:49;1.20;99.90
7516;DHT22;3799;47.184;8.538;2024-01-16T01:12:16;1.20;99.90
7516;DHT22;3799;47.184;8.538;2024-01-16T01:14:43;1.20;99.90
7516;DHT22;3799;47.184;8.538;2024-01-16T01:17:10;1.10;99.90
7516;DHT22;3799;47.184;8.538;2024-01-16T01:19:37;1.00;99.90
7516;DHT22;3799;47.184;8.538;2024-01-16T01:22:05;1.10;99.90
7516;DHT22;3799;47.184;8.538;2024-01-16T01:24:33;1.00;99.90
7516;DHT22;3799;47.184;8.538;2024-01-16T01:27:00;1.00;99.90
7516;DHT22;3799;47.184;8.538;2024-01-16T01:29:27;0.70;99.90
7516;DHT22;3799;47.184;8.538;2024-01-16T01:31:54;0.80;99.90
7516;DHT22;3799;47.184;8.538;2024-01-16T01:34:22;0.60;99.90
7516;DHT22;3799;47.184;8.538;2024-01-16T01:36:49;0.80;99.90
7516;DHT22;3799;47.184;8.538;2024-01-16T01:39:16;0.90;99.90
7516;DHT22;3799;47.184;8.538;2024-01-16T01:41:43;0.60;99.90
7516;DHT22;3799;47.184;8.538;2024-01-16T01:44:10;0.90;99.90
7516;DHT22;3799;47.184;8.538;2024-01-16T01:46:43;0.90;99.90
7516;DHT22;3799;47.184;8.538;2024-01-16T01:49:14;0.90;99.90
7516;DHT22;3799;47.184;8.538;2024-01-16T01:51:43;0.80;99.90
7516;DHT22;3799;47.184;8.538;2024-01-16T01:54:11;0.70;99.90
7516;DHT22;3799;47.184;8.538;2024-01-16T01:56:39;0.70;99.90
7516;DHT22;3799;47.184;8.538;2024-01-16T01:59:09;0.50;99.90
7516;DHT22;3799;47.184;8.538;2024-01-16T02:01:38;0.60;99.90
7516;DHT22;3799;47.184;8.538;2024-01-16T02:04:06;0.70;99.90
7516;DHT22;3799;47.184;8.538;2024-01-16T02:06:33;0.60;99.90
7516;DHT22;3799;47.184;8.538;2024-01-16T02:09:01;0.60;99.90
7516;DHT22;3799;47.184;8.538;2024-01-16T02:11:28;0.60;99.90
7516;DHT22;3799;47.184;8.538;2024-01-16T02:13:55;0.30;99.90
7516;DHT22;3799;47.184;8.538;2024-01-16T02:16:24;0.40;99.90
7516;DHT22;3799;47.184;8.538;2024-01-16T02:18:52;0.50;99.90
7516;DHT22;3799;47.184;8.538;2024-01-16T02:21:25;0.40;99.90
7516;DHT22;3799;47.184;8.538;2024-01-16T02:23:53;0.40;99.90
7516;DHT22;3799;47.184;8.538;2024-01-16T02:26:22;0.60;99.90
7516;DHT22;3799;47.184;8.538;2024-01-16T02:28:49;0.50;99.90
7516;DHT22;3799;47.184;8.538;2024-01-16T02:31:17;0.50;99.90
7516;DHT22;3799;47.184;8.538;2024-01-16T02:33:45;0.40;99.90
7516;DHT22;3799;47.184;8.538;2024-01-16T02:36:12;0.40;99.90
7516;DHT22;3799;47.184;8.538;2024-01-16T02:38:39;0.70;99.90
7516;DHT22;3799;47.184;8.538;2024-01-16T02:41:13;0.60;99.90
7516;DHT22;3799;47.184;8.538;2024-01-16T02:43:40;0.60;99.90
7516;DHT22;3799;47.184;8.538;2024-01-16T02:46:07;0.50;99.90
7516;DHT22;3799;47.184;8.538;2024-01-16T02:48:39;0.40;99.90
7516;DHT22;3799;47.184;8.538;2024-01-16T02:51:07;0.50;99.90
7516;DHT22;3799;47.184;8.538;2024-01-16T02:53:34;0.60;99.90
7516;DHT22;3799;47.184;8.538;2024-01-16T02:56:01;0.40;99.90
7516;DHT22;3799;47.184;8.538;2024-01-16T02:58:30;0.50;99.90
7516;DHT22;3799;47.184;8.538;2024-01-16T03:00:57;0.60;99.90
7516;DHT22;3799;47.184;8.538;2024-01-16T03:03:26;0.30;99.90
7516;DHT22;3799;47.184;8.538;2024-01-16T03:05:53;0.40;99.90
7516;DHT22;3799;47.184;8.538;2024-01-16T03:08:23;0.40;99.90
7516;DHT22;3799;47.184;8.538;2024-01-16T03:10:50;0.50;99.90
7516;DHT22;3799;47.184;8.538;2024-01-16T03:13:17;0.20;99.90
7516;DHT22;3799;47.184;8.538;2024-01-16T03:15:45;0.30;99.90
7516;DHT22;3799;47.184;8.538;2024-01-16T03:18:12;0.30;99.90
7516;DHT22;3799;47.184;8.538;2024-01-16T03:20:40;0.50;99.90
7516;DHT22;3799;47.184;8.538;2024-01-16T03:23:07;0.60;99.90
7516;DHT22;3799;47.184;8.538;2024-01-16T03:25:34;0.50;99.90
7516;DHT22;3799;47.184;8.538;2024-01-16T03:28:05;0.50;99.90
7516;DHT22;3799;47.184;8.538;2024-01-16T03:30:35;0.50;99.90
7516;DHT22;3799;47.184;8.538;2024-01-16T03:33:02;0.60;99.90
7516;DHT22;3799;47.184;8.538;2024-01-16T03:35:30;0.70;99.90
7516;DHT22;3799;47.184;8.538;2024-01-16T03:37:57;0.50;99.90
7516;DHT22;3799;47.184;8.538;2024-01-16T03:40:24;0.70;99.90
7516;DHT22;3799;47.184;8.538;2024-01-16T03:42:52;0.50;99.90
7516;DHT22;3799;47.184;8.538;2024-01-16T03:45:19;0.50;99.90
7516;DHT22;3799;47.184;8.538;2024-01-16T03:47:46;0.40;99.90
7516;DHT22;3799;47.184;8.538;2024-01-16T03:50:14;0.30;99.90
7516;DHT22;3799;47.184;8.538;2024-01-16T03:52:41;0.40;99.90
7516;DHT22;3799;47.184;8.538;2024-01-16T03:55:09;0.30;99.90
7516;DHT22;3799;47.184;8.538;2024-01-16T03:57:36;0.20;99.90
7516;DHT22;3799;47.184;8.538;2024-01-16T04:00:03;0.10;99.90
7516;DHT22;3799;47.184;8.538;2024-01-16T04:02:32;0.20;99.90
7516;DHT22;3799;47.184;8.538;2024-01-16T04:04:59;0.20;99.90
7516;DHT22;3799;47.184;8.538;2024-01-16T04:07:27;0.00;99.90
7516;DHT22;3799;47.184;8.538;2024-01-16T04:09:54;0.10;99.90
7516;DHT22;3799;47.184;8.538;2024-01-16T04:12:22;-0.10;99.90
7516;DHT22;3799;47.184;8.538;2024-01-16T04:14:49;-0.10;99.90
7516;DHT22;3799;47.184;8.538;2024-01-16T04:17:16;-0.20;99.90
7516;DHT22;3799;47.184;8.538;2024-01-16T04:19:43;-0.20;99.90
7516;DHT22;3799;47.184;8.538;2024-01-16T04:22:10;-0.20;99.90
7516;DHT22;3799;47.184;8.538;2024-01-16T04:24:38;-0.30;99.90
7516;DHT22;3799;47.184;8.538;2024-01-16T04:27:05;-0.10;99.90
7516;DHT22;3799;47.184;8.538;2024-01-16T04:29:32;-0.20;99.90
7516;DHT22;3799;47.184;8.538;2024-01-16T04:31:59;-0.30;99.90
7516;DHT22;3799;47.184;8.538;2024-01-16T04:34:26;-0.30;99.90
7516;DHT22;3799;47.184;8.538;2024-01-16T04:36:54;-0.50;99.90
7516;DHT22;3799;47.184;8.538;2024-01-16T04:39:21;-0.40;99.90
7516;DHT22;3799;47.184;8.538;2024-01-16T04:41:51;-0.20;99.90
7516;DHT22;3799;47.184;8.538;2024-01-16T04:44:18;-0.30;99.90
7516;DHT22;3799;47.184;8.538;2024-01-16T04:46:46;-0.30;99.90
7516;DHT22;3799;47.184;8.538;2024-01-16T04:49:16;-0.10;99.90
7516;DHT22;3799;47.184;8.538;2024-01-16T04:51:43;-0.50;99.90
7516;DHT22;3799;47.184;8.538;2024-01-16T04:54:11;-0.40;99.90
7516;DHT22;3799;47.184;8.538;2024-01-16T04:56:38;-0.40;99.90
7516;DHT22;3799;47.184;8.538;2024-01-16T04:59:06;-0.20;99.90
7516;DHT22;3799;47.184;8.538;2024-01-16T05:01:33;-0.20;99.90
7516;DHT22;3799;47.184;8.538;2024-01-16T05:04:00;-0.20;99.90
7516;DHT22;3799;47.184;8.538;2024-01-16T05:06:27;-0.10;99.90
7516;DHT22;3799;47.184;8.538;2024-01-16T05:08:55;-0.30;99.90
7516;DHT22;3799;47.184;8.538;2024-01-16T05:11:22;-0.20;99.90
7516;DHT22;3799;47.184;8.538;2024-01-16T05:13:49;-0.40;99.90
7516;DHT22;3799;47.184;8.538;2024-01-16T05:16:16;-0.30;99.90
7516;DHT22;3799;47.184;8.538;2024-01-16T05:18:43;-0.10;99.90
7516;DHT22;3799;47.184;8.538;2024-01-16T05:21:11;-0.40;99.90
7516;DHT22;3799;47.184;8.538;2024-01-16T05:23:38;-0.30;99.90
7516;DHT22;3799;47.184;8.538;2024-01-16T05:26:05;-0.20;99.90
7516;DHT22;3799;47.184;8.538;2024-01-16T05:28:33;-0.40;99.90
7516;DHT22;3799;47.184;8.538;2024-01-16T05:31:00;-0.50;99.90
7516;DHT22;3799;47.184;8.538;2024-01-16T05:33:27;-0.40;99.90
7516;DHT22;3799;47.184;8.538;2024-01-16T05:35:57;-0.40;99.90
7516;DHT22;3799;47.184;8.538;2024-01-16T05:38:24;-0.40;99.90
7516;DHT22;3799;47.184;8.538;2024-01-16T05:40:51;-0.40;99.90
7516;DHT22;3799;47.184;8.538;2024-01-16T05:43:19;-0.50;99.90
7516;DHT22;3799;47.184;8.538;2024-01-16T05:45:46;-0.70;99.90
7516;DHT22;3799;47.184;8.538;2024-01-16T05:48:13;-0.60;99.90
7516;DHT22;3799;47.184;8.538;2024-01-16T05:50:40;-0.80;99.90
7516;DHT22;3799;47.184;8.538;2024-01-16T05:53:08;-0.70;99.90
7516;DHT22;3799;47.184;8.538;2024-01-16T05:55:36;-0.90;99.90
7516;DHT22;3799;47.184;8.538;2024-01-16T05:58:03;-0.90;99.90
7516;DHT22;3799;47.184;8.538;2024-01-16T06:00:31;-0.70;99.90
7516;DHT22;3799;47.184;8.538;2024-01-16T06:03:00;-0.60;99.90
7516;DHT22;3799;47.184;8.538;2024-01-16T06:05:27;-0.80;99.90
7516;DHT22;3799;47.184;8.538;2024-01-16T06:07:55;-0.80;99.90
7516;DHT22;3799;47.184;8.538;2024-01-16T06:10:22;-0.80;99.90
7516;DHT22;3799;47.184;8.538;2024-01-16T06:12:49;-0.70;99.90
7516;DHT22;3799;47.184;8.538;2024-01-16T06:15:34;-0.70;99.90
7516;DHT22;3799;47.184;8.538;2024-01-16T06:18:42;-0.70;99.90
7516;DHT22;3799;47.184;8.538;2024-01-16T06:21:09;-1.00;99.90
7516;DHT22;3799;47.184;8.538;2024-01-16T06:23:39;-0.80;99.90
7516;DHT22;3799;47.184;8.538;2024-01-16T06:26:08;-0.90;99.90
7516;DHT22;3799;47.184;8.538;2024-01-16T06:28:35;-0.60;99.90
7516;DHT22;3799;47.184;8.538;2024-01-16T06:31:03;-0.70;99.90
7516;DHT22;3799;47.184;8.538;2024-01-16T06:33:30;-0.80;99.90
7516;DHT22;3799;47.184;8.538;2024-01-16T06:35:58;-0.70;99.90
7516;DHT22;3799;47.184;8.538;2024-01-16T06:38:25;-0.60;99.90
7516;DHT22;3799;47.184;8.538;2024-01-16T06:40:52;-0.60;99.90
7516;DHT22;3799;47.184;8.538;2024-01-16T06:43:19;-0.70;99.90
7516;DHT22;3799;47.184;8.538;2024-01-16T06:45:47;-0.60;99.90
7516;DHT22;3799;47.184;8.538;2024-01-16T06:48:14;-0.70;99.90
7516;DHT22;3799;47.184;8.538;2024-01-16T06:50:41;-0.60;99.90
7516;DHT22;3799;47.184;8.538;2024-01-16T06:53:09;-0.50;99.90
7516;DHT22;3799;47.184;8.538;2024-01-16T06:55:36;-0.60;99.90
7516;DHT22;3799;47.184;8.538;2024-01-16T06:58:03;-0.70;99.90
7516;DHT22;3799;47.184;8.538;2024-01-16T07:00:30;-0.70;99.90
7516;DHT22;3799;47.184;8.538;2024-01-16T07:02:58;-0.80;99.90
7516;DHT22;3799;47.184;8.538;2024-01-16T07:05:25;-0.70;99.90
7516;DHT22;3799;47.184;8.538;2024-01-16T07:07:52;-0.80;99.90
7516;DHT22;3799;47.184;8.538;2024-01-16T07:10:20;-0.70;99.90
7516;DHT22;3799;47.184;8.538;2024-01-16T07:12:49;-0.60;99.90
7516;DHT22;3799;47.184;8.538;2024-01-16T07:15:18;-0.90;99.90
7516;DHT22;3799;47.184;8.538;2024-01-16T07:17:49;-0.80;99.90
7516;DHT22;3799;47.184;8.538;2024-01-16T07:20:16;-0.80;99.90
7516;DHT22;3799;47.184;8.538;2024-01-16T07:22:43;-0.80;99.90
7516;DHT22;3799;47.184;8.538;2024-01-16T07:25:11;-0.70;99.90
7516;DHT22;3799;47.184;8.538;2024-01-16T07:27:38;-0.70;99.90
7516;DHT22;3799;47.184;8.538;2024-01-16T07:30:05;-0.80;99.90
7516;DHT22;3799;47.184;8.538;2024-01-16T07:32:33;-0.70;99.90
7516;DHT22;3799;47.184;8.538;2024-01-16T07:35:02;-0.90;99.90
7516;DHT22;3799;47.184;8.538;2024-01-16T07:37:30;-0.80;99.90
7516;DHT22;3799;47.184;8.538;2024-01-16T07:39:57;-0.70;99.90
7516;DHT22;3799;47.184;8.538;2024-01-16T07:42:24;-0.90;99.90
7516;DHT22;3799;47.184;8.538;2024-01-16T07:44:52;-0.60;99.90
7516;DHT22;3799;47.184;8.538;2024-01-16T07:47:20;-0.90;99.90
7516;DHT22;3799;47.184;8.538;2024-01-16T07:49:47;-0.60;99.90
7516;DHT22;3799;47.184;8.538;2024-01-16T07:52:14;-0.70;99.90
7516;DHT22;3799;47.184;8.538;2024-01-16T07:54:42;-0.60;99.90
7516;DHT22;3799;47.184;8.538;2024-01-16T07:57:10;-0.60;99.90
7516;DHT22;3799;47.184;8.538;2024-01-16T07:59:39;-0.70;99.90
7516;DHT22;3799;47.184;8.538;2024-01-16T08:02:08;-0.70;99.90
7516;DHT22;3799;47.184;8.538;2024-01-16T08:04:36;-0.50;99.90
7516;DHT22;3799;47.184;8.538;2024-01-16T08:07:04;-0.50;99.90
7516;DHT22;3799;47.184;8.538;2024-01-16T08:09:31;-0.70;99.90
7516;DHT22;3799;47.184;8.538;2024-01-16T08:11:58;-0.50;99.90
7516;DHT22;3799;47.184;8.538;2024-01-16T08:14:25;-0.50;99.90
7516;DHT22;3799;47.184;8.538;2024-01-16T08:16:53;-0.50;99.90
7516;DHT22;3799;47.184;8.538;2024-01-16T08:19:20;-0.50;99.90
7516;DHT22;3799;47.184;8.538;2024-01-16T08:21:48;-0.60;99.90
7516;DHT22;3799;47.184;8.538;2024-01-16T08:24:15;-0.60;99.90
7516;DHT22;3799;47.184;8.538;2024-01-16T08:26:42;-0.40;99.90
7516;DHT22;3799;47.184;8.538;2024-01-16T08:29:09;-0.30;99.90
7516;DHT22;3799;47.184;8.538;2024-01-16T08:31:36;-0.50;99.90
7516;DHT22;3799;47.184;8.538;2024-01-16T08:34:04;-0.50;99.90
7516;DHT22;3799;47.184;8.538;2024-01-16T08:36:32;-0.30;99.90
7516;DHT22;3799;47.184;8.538;2024-01-16T08:38:59;-0.30;99.90
7516;DHT22;3799;47.184;8.538;2024-01-16T08:41:26;-0.50;99.90
7516;DHT22;3799;47.184;8.538;2024-01-16T08:43:53;-0.40;99.90
7516;DHT22;3799;47.184;8.538;2024-01-16T08:46:21;-0.40;99.90
7516;DHT22;3799;47.184;8.538;2024-01-16T08:48:48;-0.30;99.90
7516;DHT22;3799;47.184;8.538;2024-01-16T08:51:16;-0.40;99.90
7516;DHT22;3799;47.184;8.538;2024-01-16T08:53:43;-0.20;99.90
7516;DHT22;3799;47.184;8.538;2024-01-16T08:56:10;0.00;99.90
7516;DHT22;3799;47.184;8.538;2024-01-16T08:58:39;-0.10;99.90
7516;DHT22;3799;47.184;8.538;2024-01-16T09:01:07;0.00;99.90
7516;DHT22;3799;47.184;8.538;2024-01-16T09:03:35;-0.10;99.90
7516;DHT22;3799;47.184;8.538;2024-01-16T09:06:03;0.00;99.90
7516;DHT22;3799;47.184;8.538;2024-01-16T09:08:31;0.10;99.90
7516;DHT22;3799;47.184;8.538;2024-01-16T09:10:59;0.10;99.90
7516;DHT22;3799;47.184;8.538;2024-01-16T09:13:26;0.10;99.90
7516;DHT22;3799;47.184;8.538;2024-01-16T09:15:53;0.50;99.90
7516;DHT22;3799;47.184;8.538;2024-01-16T09:18:20;0.30;99.90
7516;DHT22;3799;47.184;8.538;2024-01-16T09:20:48;0.40;99.90
7516;DHT22;3799;47.184;8.538;2024-01-16T09:23:15;0.70;99.90
7516;DHT22;3799;47.184;8.538;2024-01-16T09:25:43;0.60;99.90
7516;DHT22;3799;47.184;8.538;2024-01-16T09:28:14;0.90;99.90
7516;DHT22;3799;47.184;8.538;2024-01-16T09:30:42;0.90;99.90
7516;DHT22;3799;47.184;8.538;2024-01-16T09:33:09;1.30;99.90
7516;DHT22;3799;47.184;8.538;2024-01-16T09:35:37;1.30;99.90
7516;DHT22;3799;47.184;8.538;2024-01-16T09:38:05;1.50;99.90
7516;DHT22;3799;47.184;8.538;2024-01-16T09:40:32;1.60;99.90
7516;DHT22;3799;47.184;8.538;2024-01-16T09:43:00;1.70;99.90
7516;DHT22;3799;47.184;8.538;2024-01-16T09:45:29;1.70;99.90
7516;DHT22;3799;47.184;8.538;2024-01-16T09:47:57;1.60;99.90
7516;DHT22;3799;47.184;8.538;2024-01-16T09:50:26;1.80;99.90
7516;DHT22;3799;47.184;8.538;2024-01-16T09:52:53;1.70;99.90
7516;DHT22;3799;47.184;8.538;2024-01-16T09:55:25;2.00;99.90
7516;DHT22;3799;47.184;8.538;2024-01-16T09:57:53;2.20;99.90
7516;DHT22;3799;47.184;8.538;2024-01-16T10:00:20;2.30;99.90
7516;DHT22;3799;47.184;8.538;2024-01-16T10:02:50;2.50;99.90
7516;DHT22;3799;47.184;8.538;2024-01-16T10:05:17;2.40;99.90
7516;DHT22;3799;47.184;8.538;2024-01-16T10:07:45;2.40;99.90
7516;DHT22;3799;47.184;8.538;2024-01-16T10:10:12;2.50;99.90
7516;DHT22;3799;47.184;8.538;2024-01-16T10:12:43;2.90;99.90
7516;DHT22;3799;47.184;8.538;2024-01-16T10:15:11;3.10;99.90
7516;DHT22;3799;47.184;8.538;2024-01-16T10:17:44;3.20;99.90
7516;DHT22;3799;47.184;8.538;2024-01-16T10:20:11;3.10;99.90
7516;DHT22;3799;47.184;8.538;2024-01-16T10:22:54;3.40;99.90
7516;DHT22;3799;47.184;8.538;2024-01-16T10:25:21;3.50;99.90
7516;DHT22;3799;47.184;8.538;2024-01-16T10:27:49;3.40;99.90
7516;DHT22;3799;47.184;8.538;2024-01-16T10:30:29;3.50;99.90
7516;DHT22;3799;47.184;8.538;2024-01-16T10:33:14;3.60;99.90
7516;DHT22;3799;47.184;8.538;2024-01-16T10:35:44;3.50;99.90
7516;DHT22;3799;47.184;8.538;2024-01-16T10:38:20;3.70;99.90
7516;DHT22;3799;47.184;8.538;2024-01-16T10:40:47;3.70;99.90
7516;DHT22;3799;47.184;8.538;2024-01-16T10:43:17;3.70;99.90
7516;DHT22;3799;47.184;8.538;2024-01-16T10:45:45;4.00;99.90
7516;DHT22;3799;47.184;8.538;2024-01-16T10:48:12;4.00;99.10
7516;DHT22;3799;47.184;8.538;2024-01-16T10:50:39;4.10;97.80
7516;DHT22;3799;47.184;8.538;2024-01-16T10:53:08;4.20;97.70
7516;DHT22;3799;47.184;8.538;2024-01-16T10:55:52;4.20;97.00
7516;DHT22;3799;47.184;8.538;2024-01-16T10:58:22;4.10;97.20
7516;DHT22;3799;47.184;8.538;2024-01-16T11:00:52;4.50;97.60
7516;DHT22;3799;47.184;8.538;2024-01-16T11:03:31;4.60;97.50
7516;DHT22;3799;47.184;8.538;2024-01-16T11:06:00;4.20;96.50
7516;DHT22;3799;47.184;8.538;2024-01-16T11:08:30;4.60;96.20
7516;DHT22;3799;47.184;8.538;2024-01-16T11:11:00;4.80;95.60
7516;DHT22;3799;47.184;8.538;2024-01-16T11:13:33;4.80;95.10
7516;DHT22;3799;47.184;8.538;2024-01-16T11:16:04;4.70;94.60
7516;DHT22;3799;47.184;8.538;2024-01-16T11:18:32;4.70;94.90
7516;DHT22;3799;47.184;8.538;2024-01-16T11:21:02;4.70;94.90
7516;DHT22;3799;47.184;8.538;2024-01-16T11:23:36;4.80;94.60
7516;DHT22;3799;47.184;8.538;2024-01-16T11:29:01;5.00;92.80
7516;DHT22;3799;47.184;8.538;2024-01-16T11:31:52;4.90;92.50
7516;DHT22;3799;47.184;8.538;2024-01-16T11:37:25;5.00;93.30
7516;DHT22;3799;47.184;8.538;2024-01-16T11:42:52;4.90;92.00
7516;DHT22;3799;47.184;8.538;2024-01-16T11:48:14;4.90;92.80
7516;DHT22;3799;47.184;8.538;2024-01-16T11:50:44;4.80;93.10
7516;DHT22;3799;47.184;8.538;2024-01-16T11:53:35;4.80;93.10
7516;DHT22;3799;47.184;8.538;2024-01-16T12:02:13;5.20;92.60
7516;DHT22;3799;47.184;8.538;2024-01-16T12:04:42;5.20;92.90
7516;DHT22;3799;47.184;8.538;2024-01-16T12:07:09;5.40;91.50
7516;DHT22;3799;47.184;8.538;2024-01-16T12:09:39;5.50;90.50
7516;DHT22;3799;47.184;8.538;2024-01-16T12:12:06;5.60;90.10
7516;DHT22;3799;47.184;8.538;2024-01-16T12:14:35;5.40;90.00
7516;DHT22;3799;47.184;8.538;2024-01-16T12:17:09;5.50;89.60
7516;DHT22;3799;47.184;8.538;2024-01-16T12:19:38;5.60;90.00
7516;DHT22;3799;47.184;8.538;2024-01-16T12:22:13;5.60;89.70
7516;DHT22;3799;47.184;8.538;2024-01-16T12:24:40;5.50;89.30
7516;DHT22;3799;47.184;8.538;2024-01-16T12:27:08;5.60;88.70
7516;DHT22;3799;47.184;8.538;2024-01-16T12:29:35;5.70;87.70
7516;DHT22;3799;47.184;8.538;2024-01-16T12:34:45;6.00;86.10
7516;DHT22;3799;47.184;8.538;2024-01-16T12:37:13;6.00;84.60
7516;DHT22;3799;47.184;8.538;2024-01-16T12:39:40;6.20;84.90
7516;DHT22;3799;47.184;8.538;2024-01-16T12:42:14;6.30;85.20
7516;DHT22;3799;47.184;8.538;2024-01-16T12:44:42;6.30;84.60
7516;DHT22;3799;47.184;8.538;2024-01-16T12:47:09;6.10;84.00
7516;DHT22;3799;47.184;8.538;2024-01-16T12:49:42;6.20;82.20
7516;DHT22;3799;47.184;8.538;2024-01-16T12:52:20;6.20;81.30
7516;DHT22;3799;47.184;8.538;2024-01-16T12:54:58;6.00;80.80
7516;DHT22;3799;47.184;8.538;2024-01-16T12:57:28;6.10;81.10
7516;DHT22;3799;47.184;8.538;2024-01-16T12:59:56;5.70;80.90
7516;DHT22;3799;47.184;8.538;2024-01-16T13:02:28;5.80;82.20
7516;DHT22;3799;47.184;8.538;2024-01-16T13:05:00;5.50;82.70
7516;DHT22;3799;47.184;8.538;2024-01-16T13:07:35;5.20;83.30
7516;DHT22;3799;47.184;8.538;2024-01-16T13:10:09;5.30;85.30
7516;DHT22;3799;47.184;8.538;2024-01-16T13:12:39;5.10;86.60
7516;DHT22;3799;47.184;8.538;2024-01-16T13:15:07;5.20;88.90
7516;DHT22;3799;47.184;8.538;2024-01-16T13:17:37;5.10;89.60
7516;DHT22;3799;47.184;8.538;2024-01-16T13:20:05;5.10;89.50
7516;DHT22;3799;47.184;8.538;2024-01-16T13:22:35;5.20;90.30
7516;DHT22;3799;47.184;8.538;2024-01-16T13:25:12;5.70;89.00
7516;DHT22;3799;47.184;8.538;2024-01-16T13:27:40;5.30;86.00
7516;DHT22;3799;47.184;8.538;2024-01-16T13:30:07;5.40;87.00
7516;DHT22;3799;47.184;8.538;2024-01-16T13:32:35;4.80;87.30
7516;DHT22;3799;47.184;8.538;2024-01-16T13:35:05;4.90;88.80
7516;DHT22;3799;47.184;8.538;2024-01-16T13:37:38;4.50;90.00
7516;DHT22;3799;47.184;8.538;2024-01-16T13:40:08;4.50;90.40
7516;DHT22;3799;47.184;8.538;2024-01-16T13:42:42;4.70;90.80
7516;DHT22;3799;47.184;8.538;2024-01-16T13:45:10;4.50;91.20
7516;DHT22;3799;47.184;8.538;2024-01-16T13:47:40;4.80;91.60
7516;DHT22;3799;47.184;8.538;2024-01-16T13:50:08;4.60;91.40
7516;DHT22;3799;47.184;8.538;2024-01-16T13:52:36;4.60;91.30
7516;DHT22;3799;47.184;8.538;2024-01-16T13:55:03;4.90;91.10
7516;DHT22;3799;47.184;8.538;2024-01-16T13:57:32;4.80;90.80
7516;DHT22;3799;47.184;8.538;2024-01-16T14:00:03;4.50;91.00
7516;DHT22;3799;47.184;8.538;2024-01-16T14:02:31;4.40;91.60
7516;DHT22;3799;47.184;8.538;2024-01-16T14:04:58;4.40;92.10
7516;DHT22;3799;47.184;8.538;2024-01-16T14:07:26;4.40;92.60
7516;DHT22;3799;47.184;8.538;2024-01-16T14:09:53;4.30;92.40
7516;DHT22;3799;47.184;8.538;2024-01-16T14:12:21;4.30;92.50
7516;DHT22;3799;47.184;8.538;2024-01-16T14:14:48;4.10;93.30
7516;DHT22;3799;47.184;8.538;2024-01-16T14:17:15;4.00;93.60
7516;DHT22;3799;47.184;8.538;2024-01-16T14:19:42;4.00;93.80
7516;DHT22;3799;47.184;8.538;2024-01-16T14:22:10;4.10;93.60
7516;DHT22;3799;47.184;8.538;2024-01-16T14:24:37;4.10;93.30
7516;DHT22;3799;47.184;8.538;2024-01-16T14:27:05;4.10;93.70
7516;DHT22;3799;47.184;8.538;2024-01-16T14:29:32;3.80;93.30
7516;DHT22;3799;47.184;8.538;2024-01-16T14:32:01;3.70;93.40
7516;DHT22;3799;47.184;8.538;2024-01-16T14:34:28;3.70;93.70
7516;DHT22;3799;47.184;8.538;2024-01-16T14:36:55;3.90;94.10
7516;DHT22;3799;47.184;8.538;2024-01-16T14:39:23;4.10;93.90
7516;DHT22;3799;47.184;8.538;2024-01-16T14:41:53;4.70;93.30
7516;DHT22;3799;47.184;8.538;2024-01-16T14:44:22;5.90;92.10
7516;DHT22;3799;47.184;8.538;2024-01-16T14:46:49;7.40;86.50
7516;DHT22;3799;47.184;8.538;2024-01-16T14:49:20;8.80;76.30
7516;DHT22;3799;47.184;8.538;2024-01-16T14:51:48;9.40;69.70
7516;DHT22;3799;47.184;8.538;2024-01-16T14:54:16;10.00;61.10
7516;DHT22;3799;47.184;8.538;2024-01-16T14:56:43;10.90;57.80
7516;DHT22;3799;47.184;8.538;2024-01-16T14:59:10;11.60;55.60
7516;DHT22;3799;47.184;8.538;2024-01-16T15:01:42;11.70;53.90
7516;DHT22;3799;47.184;8.538;2024-01-16T15:04:11;12.00;52.60
7516;DHT22;3799;47.184;8.538;2024-01-16T15:06:39;11.60;50.90
7516;DHT22;3799;47.184;8.538;2024-01-16T15:09:06;11.40;50.80
7516;DHT22;3799;47.184;8.538;2024-01-16T15:11:37;11.00;50.80
7516;DHT22;3799;47.184;8.538;2024-01-16T15:14:11;11.10;50.70
7516;DHT22;3799;47.184;8.538;2024-01-16T15:16:39;10.80;50.50
7516;DHT22;3799;47.184;8.538;2024-01-16T15:19:07;10.60;51.10
7516;DHT22;3799;47.184;8.538;2024-01-16T15:21:34;10.70;50.70
7516;DHT22;3799;47.184;8.538;2024-01-16T15:24:03;10.00;50.30
7516;DHT22;3799;47.184;8.538;2024-01-16T15:26:31;9.10;51.70
7516;DHT22;3799;47.184;8.538;2024-01-16T15:28:58;8.90;52.50
7516;DHT22;3799;47.184;8.538;2024-01-16T15:31:25;8.30;52.70
7516;DHT22;3799;47.184;8.538;2024-01-16T15:33:53;7.60;53.30
7516;DHT22;3799;47.184;8.538;2024-01-16T15:36:20;6.90;54.20
7516;DHT22;3799;47.184;8.538;2024-01-16T15:38:48;6.00;55.30
7516;DHT22;3799;47.184;8.538;2024-01-16T15:41:16;5.40;56.50
7516;DHT22;3799;47.184;8.538;2024-01-16T15:43:43;5.00;57.80
7516;DHT22;3799;47.184;8.538;2024-01-16T15:46:11;4.40;58.80
7516;DHT22;3799;47.184;8.538;2024-01-16T15:48:38;3.90;59.70
7516;DHT22;3799;47.184;8.538;2024-01-16T15:51:05;3.70;61.90
7516;DHT22;3799;47.184;8.538;2024-01-16T15:53:36;3.20;64.10
7516;DHT22;3799;47.184;8.538;2024-01-16T15:56:04;2.90;67.40
7516;DHT22;3799;47.184;8.538;2024-01-16T15:58:32;2.50;71.60
7516;DHT22;3799;47.184;8.538;2024-01-16T16:01:00;2.60;78.70
7516;DHT22;3799;47.184;8.538;2024-01-16T16:03:29;2.20;85.10
7516;DHT22;3799;47.184;8.538;2024-01-16T16:05:58;1.90;90.80
7516;DHT22;3799;47.184;8.538;2024-01-16T16:08:25;1.60;94.90
7516;DHT22;3799;47.184;8.538;2024-01-16T16:10:53;1.40;97.40
7516;DHT22;3799;47.184;8.538;2024-01-16T16:13:20;1.40;99.40
7516;DHT22;3799;47.184;8.538;2024-01-16T16:15:47;1.10;99.90
7516;DHT22;3799;47.184;8.538;2024-01-16T16:18:14;0.90;99.90
7516;DHT22;3799;47.184;8.538;2024-01-16T16:20:42;0.90;99.90
7516;DHT22;3799;47.184;8.538;2024-01-16T16:23:09;1.10;99.90
7516;DHT22;3799;47.184;8.538;2024-01-16T16:25:44;0.80;99.90
7516;DHT22;3799;47.184;8.538;2024-01-16T16:28:12;0.70;99.90
7516;DHT22;3799;47.184;8.538;2024-01-16T16:30:41;0.90;99.90
7516;DHT22;3799;47.184;8.538;2024-01-16T16:33:10;0.60;99.90
7516;DHT22;3799;47.184;8.538;2024-01-16T16:35:38;0.50;99.90
7516;DHT22;3799;47.184;8.538;2024-01-16T16:38:05;0.50;99.90
7516;DHT22;3799;47.184;8.538;2024-01-16T16:40:32;0.80;99.90